Time;durP1;ratioP1;P1;durP2;ratioP2;P2;SDS_P1;SDS_P2;PMS_P1;PMS_P2;Temp;Humidity;BMP_temperature;BMP_pressure;BME280_temperature;BME280_humidity;BME280_pressure;Samples;Min_cycle;Max_cycle;Signal;HPM_P1;HPM_P2
2023/01/31 00:00:13;;;;;;;25.65;10.75;;;2.30;99.90;;;1.03;100.00;98234.81;5069109;28;20696;-79
2023/01/31 00:02:40;;;;;;;26.40;10.93;;;2.30;99.90;;;1.04;100.00;98236.44;5069200;28;20420;-78
2023/01/31 00:05:07;;;;;;;27.70;11.00;;;2.30;99.90;;;0.94;100.00;98239.25;5051477;28;20414;-79
2023/01/31 00:07:33;;;;;;;36.03;11.73;;;2.20;99.90;;;1.09;100.00;98229.72;5069336;28;20918;-78
2023/01/31 00:09:58;;;;;;;27.47;10.23;;;2.30;99.90;;;1.15;100.00;98228.22;5069799;28;20482;-78
2023/01/31 00:12:24;;;;;;;23.88;10.13;;;2.40;99.90;;;1.01;100.00;98224.56;5070315;28;20407;-79
2023/01/31 00:14:50;;;;;;;28.85;11.30;;;2.30;99.90;;;1.09;100.00;98213.28;5073005;28;20498;-79
2023/01/31 00:17:16;;;;;;;24.80;10.60;;;2.30;99.90;;;1.05;100.00;98212.78;5072830;28;20545;-79
2023/01/31 00:19:43;;;;;;;29.10;11.07;;;2.20;99.90;;;1.04;100.00;98205.97;5072993;28;20482;-79
2023/01/31 00:22:09;;;;;;;27.83;10.35;;;2.20;99.90;;;0.95;100.00;98214.00;5072679;28;20882;-78
2023/01/31 00:24:35;;;;;;;29.15;11.35;;;2.20;99.90;;;1.17;100.00;98221.88;5072642;28;20414;-79
2023/01/31 00:27:01;;;;;;;33.35;11.82;;;2.30;99.90;;;1.04;100.00;98210.38;5072452;28;20512;-79
2023/01/31 00:29:27;;;;;;;26.63;11.13;;;2.20;99.90;;;0.85;100.00;98222.00;5072720;28;20407;-79
2023/01/31 00:31:53;;;;;;;25.05;10.88;;;2.10;99.90;;;0.76;100.00;98228.22;5072102;28;20945;-79
2023/01/31 00:34:19;;;;;;;24.63;11.35;;;2.00;99.90;;;0.64;100.00;98217.38;5072873;28;20396;-79
2023/01/31 00:36:46;;;;;;;29.80;12.90;;;1.90;99.90;;;0.73;100.00;98210.34;5072586;28;20529;-79
2023/01/31 00:39:12;;;;;;;29.08;12.38;;;1.90;99.90;;;0.63;100.00;98207.09;5072702;28;20409;-78
2023/01/31 00:41:38;;;;;;;27.45;11.32;;;1.90;99.90;;;0.56;100.00;98206.97;5072446;28;20404;-79
2023/01/31 00:44:05;;;;;;;28.27;12.20;;;1.80;99.90;;;0.47;100.00;98202.75;5072497;28;20574;-79
2023/01/31 00:46:31;;;;;;;33.97;12.33;;;1.80;99.90;;;0.43;100.00;98192.84;5072345;28;20403;-79
2023/01/31 00:48:58;;;;;;;31.00;12.45;;;1.70;99.90;;;0.36;100.00;98198.72;5072667;28;20418;-79
2023/01/31 00:51:25;;;;;;;30.98;12.90;;;1.60;99.90;;;0.35;100.00;98197.09;5072114;28;20418;-79
2023/01/31 00:53:53;;;;;;;30.50;12.45;;;1.60;99.90;;;0.49;100.00;98198.19;5072514;28;20402;-79
2023/01/31 00:56:24;;;;;;;31.27;12.15;;;1.70;99.90;;;0.47;100.00;98200.16;5071223;28;20896;-79
2023/01/31 00:58:50;;;;;;;30.00;11.68;;;1.70;99.90;;;0.41;100.00;98193.00;5072473;28;20400;-79
2023/01/31 01:01:20;;;;;;;28.15;11.77;;;1.70;99.90;;;0.47;100.00;98179.31;5071701;28;20447;-78
2023/01/31 01:03:47;;;;;;;25.38;10.95;;;1.70;99.90;;;0.43;100.00;98192.84;5052269;28;20456;-79
2023/01/31 01:06:13;;;;;;;27.70;11.30;;;1.70;99.90;;;0.54;100.00;98188.09;5060609;28;20404;-79
2023/01/31 01:08:41;;;;;;;27.77;11.20;;;1.80;99.90;;;0.44;100.00;98197.09;5072195;28;20486;-79
2023/01/31 01:11:12;;;;;;;32.95;11.25;;;1.70;99.90;;;0.36;100.00;98203.94;5071981;28;20426;-78
2023/01/31 01:13:38;;;;;;;29.30;11.60;;;1.60;99.90;;;0.35;100.00;98199.69;5071647;28;20411;-79
2023/01/31 01:16:06;;;;;;;24.15;11.50;;;1.60;99.90;;;0.25;100.00;98195.66;5071938;28;20399;-78
2023/01/31 01:18:34;;;;;;;27.70;12.60;;;1.60;99.90;;;0.34;100.00;98194.66;5071439;28;20899;-78
2023/01/31 01:21:06;;;;;;;28.50;11.75;;;1.60;99.90;;;0.42;100.00;98188.63;5071662;28;20395;-78
2023/01/31 01:23:32;;;;;;;33.05;11.57;;;1.70;99.90;;;0.29;100.00;98189.97;5071361;28;20549;-79
2023/01/31 01:25:58;;;;;;;31.67;11.70;;;1.60;99.90;;;0.20;100.00;98192.75;5071372;28;20931;-78
2023/01/31 01:28:26;;;;;;;35.45;11.55;;;1.50;99.90;;;0.16;100.00;98189.63;5053372;28;20407;-79
2023/01/31 01:30:51;;;;;;;29.35;11.48;;;1.50;99.90;;;0.16;100.00;98188.81;5071280;28;20766;-78
2023/01/31 01:33:17;;;;;;;30.98;11.50;;;1.50;99.90;;;0.10;100.00;98192.09;5071238;28;20490;-79
2023/01/31 01:35:43;;;;;;;29.52;11.95;;;1.40;99.90;;;0.24;100.00;98194.00;5071273;28;20403;-79
2023/01/31 01:38:09;;;;;;;32.63;12.40;;;1.50;99.90;;;0.27;100.00;98194.50;5071715;28;20483;-79
2023/01/31 01:40:36;;;;;;;24.17;11.03;;;1.50;99.90;;;0.23;100.00;98195.00;5071341;28;20884;-78
2023/01/31 01:43:03;;;;;;;37.17;12.60;;;1.50;99.90;;;0.37;100.00;98200.38;5070933;28;20443;-79
2023/01/31 01:45:30;;;;;;;29.30;11.68;;;1.50;99.90;;;0.24;100.00;98204.44;5071337;28;20434;-78
2023/01/31 01:48:02;;;;;;;26.02;10.55;;;1.50;99.90;;;0.23;100.00;98201.00;5053234;28;20823;-79
2023/01/31 01:50:33;;;;;;;32.30;11.68;;;1.50;99.90;;;0.21;100.00;98208.19;5071051;28;20404;-79
2023/01/31 01:53:05;;;;;;;35.15;11.02;;;1.50;99.90;;;0.13;100.00;98210.81;5070811;28;20969;-79
2023/01/31 01:55:36;;;;;;;35.33;11.85;;;1.40;99.90;;;0.24;100.00;98207.03;5070417;28;20445;-79
2023/01/31 01:58:10;;;;;;;27.90;11.85;;;1.50;99.90;;;0.18;100.00;98211.13;5061322;28;20414;-79
2023/01/31 02:00:38;;;;;;;34.78;11.70;;;1.40;99.90;;;0.18;100.00;98205.09;5071017;28;20414;-79
2023/01/31 02:03:07;;;;;;;36.83;12.20;;;1.40;99.90;;;0.07;100.00;98216.69;5070560;28;20407;-79
2023/01/31 02:05:39;;;;;;;33.67;12.18;;;1.40;99.90;;;0.05;100.00;98208.22;5070432;28;20529;-79
2023/01/31 02:08:05;;;;;;;34.38;12.25;;;1.40;99.90;;;0.03;100.00;98212.75;5062280;28;20412;-79
2023/01/31 02:10:38;;;;;;;39.67;13.17;;;1.40;99.90;;;0.00;100.00;98221.69;5070313;28;20416;-79
2023/01/31 02:13:05;;;;;;;32.42;11.93;;;1.30;99.90;;;0.03;100.00;98209.34;5070173;28;20435;-79
2023/01/31 02:15:32;;;;;;;34.00;13.65;;;1.30;99.90;;;0.00;100.00;98220.91;5070708;28;20814;-79
2023/01/31 02:18:00;;;;;;;33.42;12.90;;;1.30;99.90;;;0.13;100.00;98212.59;5069606;28;20461;-79
2023/01/31 02:21:07;;;;;;;31.05;12.30;;;1.40;99.90;;;0.05;100.00;98213.41;5070451;28;20494;-79
2023/01/31 02:24:06;;;;;;;36.63;12.35;;;1.30;99.90;;;0.07;100.00;98216.69;5058603;28;20419;-79
2023/01/31 02:27:25;;;;;;;37.97;12.40;;;1.40;99.90;;;0.07;100.00;98215.88;5070261;28;20410;-79
2023/01/31 02:30:32;;;;;;;34.47;12.77;;;1.30;99.90;;;0.00;100.00;98215.72;5070303;28;20412;-79
2023/01/31 02:33:12;;;;;;;32.20;12.27;;;1.30;99.90;;;-0.04;100.00;98233.44;5070182;28;20419;-79
2023/01/31 02:35:54;;;;;;;39.33;13.68;;;1.30;99.90;;;-0.05;100.00;98225.78;5070048;28;20872;-79
2023/01/31 02:38:37;;;;;;;29.40;12.68;;;1.30;99.90;;;-0.01;100.00;98234.91;5070465;28;20411;-79
2023/01/31 02:41:16;;;;;;;39.50;13.85;;;1.30;99.90;;;-0.02;100.00;98238.47;5070491;28;20463;-79
2023/01/31 02:46:46;;;;;;;41.13;14.25;;;1.30;99.90;;;0.02;100.00;98244.97;5070450;28;20445;-79
2023/01/31 02:49:33;;;;;;;37.63;13.07;;;1.30;99.90;;;0.07;100.00;98249.69;5070166;28;20900;-79
2023/01/31 02:52:16;;;;;;;29.58;12.32;;;1.30;99.90;;;0.09;100.00;98248.53;5069925;28;20976;-79
2023/01/31 02:57:37;;;;;;;38.23;13.13;;;1.30;99.90;;;0.07;100.00;98249.69;5069884;28;20457;-79
2023/01/31 03:00:06;;;;;;;39.22;14.43;;;1.40;99.90;;;0.33;100.00;98252.91;5070108;28;20413;-79
2023/01/31 03:02:32;;;;;;;40.17;13.60;;;1.60;99.90;;;0.27;100.00;98264.81;5051710;28;20408;-79
2023/01/31 03:04:59;;;;;;;34.40;13.30;;;1.50;99.90;;;0.41;100.00;98250.31;5070383;28;20418;-79
2023/01/31 03:07:30;;;;;;;36.90;12.25;;;1.70;99.90;;;0.30;100.00;98254.06;5070113;28;20407;-79
2023/01/31 03:10:12;;;;;;;35.17;13.23;;;1.60;99.90;;;0.28;100.00;98244.78;5069677;28;20446;-79
2023/01/31 03:12:55;;;;;;;38.75;13.07;;;1.60;99.90;;;0.31;100.00;98249.66;5069559;28;20415;-78
2023/01/31 03:18:41;;;;;;;30.17;13.02;;;1.60;99.90;;;0.28;100.00;98252.63;5055568;28;20432;-78
2023/01/31 03:21:13;;;;;;;36.72;13.60;;;1.60;99.90;;;0.22;100.00;98248.88;5069908;28;20773;-79
2023/01/31 03:23:42;;;;;;;32.58;13.75;;;1.50;99.90;;;0.42;100.00;98251.13;5051714;28;20804;-79
2023/01/31 03:26:09;;;;;;;35.00;13.32;;;1.60;99.90;;;0.52;100.00;98252.56;5069765;28;20502;-79
2023/01/31 03:28:39;;;;;;;32.72;12.93;;;1.70;99.90;;;0.38;100.00;98254.03;5069805;28;20762;-79
2023/01/31 03:31:12;;;;;;;31.67;12.57;;;1.70;99.90;;;0.43;100.00;98250.16;5069615;28;20457;-79
2023/01/31 03:33:42;;;;;;;32.35;12.35;;;1.70;99.90;;;0.49;100.00;98250.28;5069726;28;20396;-78
2023/01/31 03:36:23;;;;;;;27.50;12.27;;;1.70;99.90;;;0.54;100.00;98255.00;5069846;28;20456;-79
2023/01/31 03:39:02;;;;;;;32.85;12.23;;;1.80;99.90;;;0.65;100.00;98259.88;5069321;28;20416;-79
2023/01/31 03:41:33;;;;;;;31.23;11.37;;;1.80;99.90;;;0.58;100.00;98264.94;5069211;28;20436;-79
2023/01/31 03:44:07;;;;;;;33.08;11.05;;;1.80;99.90;;;0.51;100.00;98260.56;5083636;22;20440;-84
2023/01/31 03:46:39;;;;;;;33.88;11.50;;;1.80;99.90;;;0.35;100.00;98253.56;5069309;28;20402;-84
2023/01/31 03:49:10;;;;;;;36.13;12.23;;;1.70;99.90;;;0.28;100.00;98263.84;5073060;28;20396;-84
2023/01/31 03:51:45;;;;;;;33.42;12.00;;;1.60;99.90;;;0.32;100.00;98256.50;5073065;28;20453;-84
2023/01/31 03:54:17;;;;;;;33.72;12.07;;;1.60;99.90;;;0.18;100.00;98259.78;5073406;28;20431;-84
2023/01/31 03:56:50;;;;;;;38.55;13.95;;;1.50;99.90;;;0.12;100.00;98263.84;5073233;28;20881;-84
2023/01/31 03:59:23;;;;;;;42.33;12.73;;;1.50;99.90;;;0.00;100.00;98265.16;5062026;28;20472;-85
2023/01/31 04:01:53;;;;;;;42.80;12.90;;;1.30;99.90;;;-0.06;100.00;98269.19;5052998;28;20425;-84
2023/01/31 04:04:25;;;;;;;39.00;13.60;;;1.30;99.90;;;-0.09;100.00;98273.94;5069506;28;20462;-85
2023/01/31 04:06:52;;;;;;;31.10;12.88;;;1.20;99.90;;;0.02;100.00;98273.59;5072934;28;21010;-84
2023/01/31 04:09:18;;;;;;;42.25;14.43;;;1.30;99.90;;;-0.11;100.00;98278.47;5061546;28;20726;-85
2023/01/31 04:11:48;;;;;;;35.53;13.65;;;1.20;99.90;;;-0.09;100.00;98281.75;5067274;28;20498;-85
2023/01/31 04:14:15;;;;;;;40.60;14.18;;;1.20;99.90;;;-0.15;100.00;98279.78;5052188;28;20418;-85
2023/01/31 04:16:41;;;;;;;39.20;14.90;;;1.20;99.90;;;-0.22;100.00;98283.97;5054032;28;20450;-85
2023/01/31 04:19:07;;;;;;;50.08;15.00;;;1.10;99.90;;;-0.24;100.00;98281.56;5062477;28;20400;-85
2023/01/31 04:21:33;;;;;;;44.42;14.70;;;1.10;99.90;;;-0.27;100.00;98286.25;5072247;28;20403;-85
2023/01/31 04:24:00;;;;;;;53.00;15.20;;;1.00;99.90;;;-0.34;100.00;98290.47;5038344;28;20409;-85
2023/01/31 04:26:27;;;;;;;41.72;15.05;;;1.00;99.90;;;-0.21;100.00;98275.19;5056727;28;20479;-85
2023/01/31 04:28:52;;;;;;;43.30;15.83;;;1.10;99.90;;;-0.30;100.00;98281.41;5054056;28;20490;-85
2023/01/31 04:31:18;;;;;;;50.22;14.43;;;1.00;99.90;;;-0.31;100.00;98280.56;5058204;28;20423;-85
2023/01/31 04:33:44;;;;;;;41.17;15.50;;;1.10;99.90;;;-0.37;100.00;98278.59;5072776;28;20396;-85
2023/01/31 04:36:10;;;;;;;42.88;14.73;;;1.00;99.90;;;-0.34;100.00;98280.88;5067967;28;20405;-85
2023/01/31 04:38:37;;;;;;;48.13;15.77;;;1.00;99.90;;;-0.35;100.00;98283.66;5052636;28;20437;-85
2023/01/31 04:41:04;;;;;;;38.50;14.73;;;1.00;99.90;;;-0.35;100.00;98276.66;5034640;28;20933;-85
2023/01/31 04:43:30;;;;;;;39.37;14.57;;;1.00;99.90;;;-0.44;100.00;98280.22;5052324;28;20503;-85
2023/01/31 04:45:56;;;;;;;40.45;14.52;;;0.90;99.90;;;-0.42;100.00;98284.28;5055636;28;20413;-84
2023/01/31 04:48:22;;;;;;;45.75;15.45;;;1.00;99.90;;;-0.45;100.00;98292.41;5054492;28;20488;-83
2023/01/31 04:50:48;;;;;;;46.47;14.70;;;0.90;99.90;;;-0.48;100.00;98287.53;5052277;28;20413;-85
2023/01/31 04:53:14;;;;;;;42.42;14.77;;;0.90;99.90;;;-0.47;100.00;98286.56;5051258;28;20413;-84
2023/01/31 04:55:40;;;;;;;52.47;16.15;;;0.90;99.90;;;-0.53;100.00;98291.59;5053394;28;20447;-84
2023/01/31 04:58:08;;;;;;;50.13;15.70;;;0.90;99.90;;;-0.54;100.00;98280.38;5051835;28;20467;-85
2023/01/31 05:00:34;;;;;;;53.08;15.35;;;0.80;99.90;;;-0.51;100.00;98274.84;5051903;28;20766;-84
2023/01/31 05:03:00;;;;;;;40.97;14.75;;;0.90;99.90;;;-0.51;100.00;98274.84;5051699;28;20401;-84
2023/01/31 05:05:26;;;;;;;35.65;15.32;;;0.90;99.90;;;-0.46;100.00;98272.59;5053052;28;20478;-85
2023/01/31 05:07:53;;;;;;;51.13;16.33;;;0.90;99.90;;;-0.48;100.00;98274.53;5052402;28;20968;-84
2023/01/31 05:10:19;;;;;;;44.55;14.98;;;0.90;99.90;;;-0.43;100.00;98276.63;5052075;28;20990;-84
2023/01/31 05:12:46;;;;;;;44.27;15.93;;;0.90;99.90;;;-0.43;100.00;98281.84;5051760;28;20433;-84
2023/01/31 05:15:13;;;;;;;41.80;15.07;;;0.90;99.90;;;-0.43;100.00;98279.22;5052050;28;20433;-85
2023/01/31 05:17:39;;;;;;;42.90;15.98;;;0.90;99.90;;;-0.43;100.00;98285.25;5062571;28;20807;-82
2023/01/31 05:20:07;;;;;;;41.88;15.52;;;0.90;99.90;;;-0.45;100.00;98281.19;5052441;28;20493;-84
2023/01/31 05:22:33;;;;;;;40.40;15.00;;;0.90;99.90;;;-0.37;100.00;98289.00;5066516;28;20467;-81
2023/01/31 05:24:59;;;;;;;46.85;15.60;;;0.90;99.90;;;-0.44;100.00;98280.22;5064249;28;20483;-85
2023/01/31 05:27:25;;;;;;;43.45;14.77;;;0.90;99.90;;;-0.46;100.00;98280.38;5070363;28;20408;-82
2023/01/31 05:29:51;;;;;;;43.95;14.50;;;0.90;99.90;;;-0.49;100.00;98288.50;5053013;28;20417;-84
2023/01/31 05:32:18;;;;;;;32.05;12.63;;;0.90;99.90;;;-0.52;100.00;98294.00;5060645;28;20492;-83
2023/01/31 05:34:44;;;;;;;36.60;13.65;;;0.80;99.90;;;-0.58;100.00;98299.84;5071193;28;20904;-84
2023/01/31 05:37:10;;;;;;;48.53;16.30;;;0.70;99.90;;;-0.69;100.00;98300.16;5057951;28;20542;-84
2023/01/31 05:39:36;;;;;;;45.85;15.60;;;0.70;99.90;;;-0.76;100.00;98298.34;5051711;28;20762;-84
2023/01/31 05:42:02;;;;;;;43.88;16.40;;;0.60;99.90;;;-0.83;100.00;98301.53;5051549;28;21102;-84
2023/01/31 05:44:28;;;;;;;55.78;18.00;;;0.50;99.90;;;-0.86;100.00;98290.66;5051346;28;20499;-84
2023/01/31 05:46:54;;;;;;;48.33;16.95;;;0.50;99.90;;;-0.79;100.00;98295.06;5062768;28;20440;-84
2023/01/31 05:49:21;;;;;;;66.90;18.63;;;0.60;99.90;;;-0.85;100.00;98300.91;5071044;28;20416;-84
2023/01/31 05:51:47;;;;;;;53.10;16.73;;;0.50;99.90;;;-0.81;100.00;98285.78;5057455;28;20438;-82
2023/01/31 05:54:13;;;;;;;44.97;17.25;;;0.60;99.90;;;-0.87;100.00;98289.03;5072225;28;20404;-83
2023/01/31 05:56:39;;;;;;;51.90;17.30;;;0.50;99.90;;;-0.87;100.00;98292.44;5075255;28;20512;-83
2023/01/31 05:59:05;;;;;;;54.42;18.77;;;0.50;99.90;;;-0.91;100.00;98287.72;5048945;28;20865;-83
2023/01/31 06:01:34;;;;;;;47.53;16.50;;;0.50;99.90;;;-0.93;100.00;98295.66;5068098;28;20749;-82
2023/01/31 06:04:00;;;;;;;44.20;16.93;;;0.40;99.90;;;-0.93;100.00;98298.25;5064860;28;20439;-79
2023/01/31 06:06:27;;;;;;;45.67;16.88;;;0.40;99.90;;;-0.95;100.00;98295.00;5063111;28;20443;-80
2023/01/31 06:08:53;;;;;;;53.88;17.45;;;0.40;99.90;;;-0.91;100.00;98291.13;5055537;28;20420;-84
2023/01/31 06:11:19;;;;;;;57.00;17.98;;;0.40;99.90;;;-0.94;100.00;98293.22;5049918;28;20421;-85
2023/01/31 06:13:45;;;;;;;47.77;17.17;;;0.50;99.90;;;-1.02;100.00;98300.97;5056348;28;20431;-84
2023/01/31 06:16:11;;;;;;;55.55;18.88;;;0.40;99.90;;;-1.08;100.00;98301.59;5070815;28;20435;-84
2023/01/31 06:18:37;;;;;;;56.15;19.27;;;0.30;99.90;;;-1.08;100.00;98301.59;5070273;28;20807;-84
2023/01/31 06:21:04;;;;;;;62.25;19.60;;;0.30;99.90;;;-1.14;100.00;98304.81;5052611;28;20429;-82
2023/01/31 06:23:33;;;;;;;57.80;19.10;;;0.20;99.90;;;-1.19;100.00;98303.50;5063900;28;20407;-82
2023/01/31 06:25:59;;;;;;;53.58;19.23;;;0.20;99.90;;;-1.20;100.00;98296.66;5068626;28;20410;-82
2023/01/31 06:28:25;;;;;;;55.67;19.50;;;0.20;99.90;;;-1.21;100.00;98302.84;5054954;28;20436;-82
2023/01/31 06:30:51;;;;;;;61.07;20.33;;;0.20;99.90;;;-1.22;100.00;98300.41;5056010;28;20440;-82
2023/01/31 06:33:17;;;;;;;65.53;20.90;;;0.10;99.90;;;-1.23;100.00;98306.56;5063514;28;20450;-84
2023/01/31 06:35:43;;;;;;;66.07;20.47;;;0.20;99.90;;;-1.25;100.00;98298.91;5056537;28;20727;-83
2023/01/31 06:38:12;;;;;;;56.42;20.20;;;0.10;99.90;;;-1.25;100.00;98306.69;5044240;28;20449;-83
2023/01/31 06:40:39;;;;;;;66.40;20.98;;;0.10;99.90;;;-1.24;100.00;98308.34;5055661;28;20407;-83
2023/01/31 06:43:05;;;;;;;63.47;20.93;;;0.10;99.90;;;-1.25;100.00;98311.91;5061908;28;20422;-83
2023/01/31 06:45:31;;;;;;;70.65;20.08;;;0.10;99.90;;;-1.30;100.00;98318.53;5055587;28;20798;-83
2023/01/31 06:47:56;;;;;;;58.13;22.50;;;0.10;99.90;;;-1.32;100.00;98320.47;5062562;28;20849;-83
2023/01/31 06:50:22;;;;;;;65.97;21.77;;;0.10;99.90;;;-1.37;100.00;98320.94;5046176;28;20427;-83
2023/01/31 06:52:48;;;;;;;57.45;21.90;;;0.00;99.90;;;-1.41;100.00;98326.56;5060230;28;20475;-83
2023/01/31 06:55:14;;;;;;;61.05;20.98;;;0.00;99.90;;;-1.45;100.00;98335.63;5056636;28;20400;-82
2023/01/31 06:57:47;;;;;;;65.60;22.23;;;-0.10;99.90;;;-1.50;100.00;98327.50;5059619;28;20934;-84
2023/01/31 07:00:15;;;;;;;62.05;22.27;;;-0.10;99.90;;;-1.52;100.00;98314.66;5057341;28;20398;-84
2023/01/31 07:02:40;;;;;;;66.90;23.23;;;-0.10;99.90;;;-1.54;100.00;98324.38;5054506;28;20415;-83
2023/01/31 07:05:07;;;;;;;66.70;22.25;;;-0.20;99.90;;;-1.52;100.00;98308.66;5042573;28;20398;-83
2023/01/31 07:07:33;;;;;;;67.38;24.25;;;-0.10;99.90;;;-1.46;100.00;98305.44;5062231;28;20443;-78
2023/01/31 07:09:59;;;;;;;64.87;22.00;;;-0.10;99.90;;;-1.34;100.00;98305.03;5058586;28;20844;-79
2023/01/31 07:12:26;;;;;;;77.60;22.73;;;0.00;99.90;;;-1.37;100.00;98307.13;5061031;28;20416;-79
2023/01/31 07:14:55;;;;;;;75.75;23.85;;;0.00;99.90;;;-1.38;100.00;98306.31;5064322;28;20890;-83
2023/01/31 07:17:27;;;;;;;60.15;22.50;;;0.00;99.90;;;-1.28;100.00;98308.81;5056658;28;20842;-84
2023/01/31 07:19:53;;;;;;;66.00;22.42;;;0.10;99.90;;;-1.25;100.00;98303.28;5057008;28;20407;-83
2023/01/31 07:22:19;;;;;;;67.63;22.70;;;0.10;99.90;;;-1.24;100.00;98312.72;5059782;28;20896;-84
2023/01/31 07:24:45;;;;;;;64.15;22.45;;;0.20;99.90;;;-1.12;100.00;98300.25;5063958;28;20420;-84
2023/01/31 07:27:12;;;;;;;60.07;21.60;;;0.20;99.90;;;-1.15;100.00;98311.81;5045515;28;20457;-83
2023/01/31 07:29:39;;;;;;;56.88;21.23;;;0.20;99.90;;;-1.13;100.00;98314.25;5063705;28;20399;-82
2023/01/31 07:32:06;;;;;;;70.90;20.90;;;0.20;99.90;;;-1.14;100.00;98316.03;5060456;28;20883;-82
2023/01/31 07:34:32;;;;;;;57.10;20.20;;;0.20;99.90;;;-1.05;100.00;98309.88;5056752;28;20450;-82
2023/01/31 07:37:00;;;;;;;66.22;20.23;;;0.30;99.90;;;-0.92;100.00;98312.06;5063121;28;20411;-82
2023/01/31 07:39:26;;;;;;;61.65;19.88;;;0.40;99.90;;;-0.98;100.00;98315.31;5062801;28;20425;-80
2023/01/31 07:41:52;;;;;;;53.03;18.45;;;0.40;99.90;;;-0.96;100.00;98316.75;5063288;28;20886;-80
2023/01/31 07:44:17;;;;;;;56.55;18.42;;;0.40;99.90;;;-0.95;100.00;98320.16;5061337;28;20399;-81
2023/01/31 07:46:43;;;;;;;50.70;18.17;;;0.40;99.90;;;-0.92;100.00;98320.69;5064488;28;20422;-82
2023/01/31 07:49:11;;;;;;;50.65;16.85;;;0.40;99.90;;;-0.89;100.00;98317.75;5062749;28;20463;-81
2023/01/31 07:51:38;;;;;;;48.95;16.23;;;0.50;99.90;;;-0.81;100.00;98327.38;5062699;28;20422;-79
2023/01/31 07:54:04;;;;;;;42.03;16.33;;;0.50;99.90;;;-0.83;100.00;98321.53;5048817;28;20918;-81
2023/01/31 07:56:30;;;;;;;50.47;16.08;;;0.50;99.90;;;-0.77;100.00;98325.28;5068670;28;20415;-78
2023/01/31 07:58:58;;;;;;;39.75;16.20;;;0.50;99.90;;;-0.73;100.00;98334.41;5058847;28;20441;-78
2023/01/31 08:04:15;;;;;;;46.85;16.23;;;0.70;99.90;;;-0.67;100.00;98334.56;5056950;28;20827;-76
2023/01/31 08:06:44;;;;;;;38.25;14.70;;;0.70;99.90;;;-0.53;100.00;98328.81;5068530;28;21644;-79
2023/01/31 08:09:10;;;;;;;37.75;14.93;;;0.80;99.90;;;-0.49;100.00;98337.91;5064006;28;21233;-81
2023/01/31 08:11:36;;;;;;;32.33;13.38;;;0.80;99.90;;;-0.39;100.00;98335.19;5062052;28;20506;-81
2023/01/31 08:14:02;;;;;;;37.35;13.38;;;0.90;99.90;;;-0.31;100.00;98337.00;5060487;28;21023;-79
2023/01/31 08:16:30;;;;;;;38.80;14.23;;;1.00;99.90;;;-0.33;100.00;98331.94;5062287;28;20416;-80
2023/01/31 08:18:56;;;;;;;39.35;13.93;;;1.00;99.90;;;-0.33;100.00;98333.72;5063193;28;20956;-81
2023/01/31 08:21:23;;;;;;;33.38;12.35;;;1.00;99.90;;;-0.24;100.00;98338.81;5062796;28;20495;-81
2023/01/31 08:23:49;;;;;;;33.43;11.83;;;1.10;99.90;;;-0.13;100.00;98330.66;5062885;28;20954;-81
2023/01/31 08:26:18;;;;;;;28.15;11.55;;;1.20;99.90;;;-0.03;100.00;98333.13;5070199;28;20494;-80
2023/01/31 08:28:46;;;;;;;33.00;11.70;;;1.20;99.90;;;0.23;100.00;98330.38;5071200;28;20499;-81
2023/01/31 08:31:14;;;;;;;36.28;11.60;;;1.40;99.90;;;0.25;100.00;98321.44;5066582;28;20440;-78
2023/01/31 08:33:40;;;;;;;39.58;11.98;;;1.50;99.90;;;0.36;100.00;98326.34;5060879;28;20918;-80
2023/01/31 08:36:11;;;;;;;34.25;11.73;;;1.60;99.90;;;0.65;100.00;98327.59;5073164;28;20430;-80
2023/01/31 08:38:38;;;;;;;26.50;9.20;;;1.80;99.90;;;0.56;100.00;98323.38;5069560;28;20399;-80
2023/01/31 08:41:04;;;;;;;31.23;10.40;;;1.80;99.90;;;0.52;100.00;98327.31;5066462;28;20413;-80
2023/01/31 08:43:31;;;;;;;36.55;10.52;;;1.80;99.90;;;0.65;100.00;98318.00;5052417;28;20940;-80
2023/01/31 08:45:57;;;;;;;25.50;9.63;;;1.90;99.90;;;0.73;100.00;98314.56;5059838;28;20413;-80
2023/01/31 08:48:23;;;;;;;25.30;9.15;;;2.00;99.90;;;0.77;100.00;98321.06;5058939;28;20413;-80
2023/01/31 08:50:49;;;;;;;36.50;10.45;;;2.00;99.90;;;0.71;100.00;98317.34;5061834;28;20516;-79
2023/01/31 08:53:15;;;;;;;37.42;9.80;;;2.00;99.90;;;0.68;100.00;98315.03;5064681;28;20463;-80
2023/01/31 08:55:42;;;;;;;31.13;10.63;;;1.90;99.90;;;0.81;100.00;98300.69;5067831;28;20844;-80
2023/01/31 08:58:08;;;;;;;26.85;9.90;;;2.10;99.90;;;0.80;100.00;98302.50;5060559;28;20745;-80
2023/01/31 09:00:34;;;;;;;28.70;9.85;;;2.10;99.90;;;0.90;100.00;98308.34;5063953;28;20468;-81
2023/01/31 09:03:01;;;;;;;26.55;9.63;;;2.20;99.90;;;0.96;100.00;98309.47;5060672;28;20411;-81
2023/01/31 09:05:29;;;;;;;29.60;10.88;;;2.20;99.90;;;1.15;100.00;98309.88;5066419;28;20523;-80
2023/01/31 09:07:55;;;;;;;30.00;9.65;;;2.40;99.90;;;1.16;100.00;98313.31;5059395;28;20478;-80
2023/01/31 09:10:21;;;;;;;29.17;10.15;;;2.40;99.90;;;1.63;100.00;98320.28;5060908;28;20441;-80
2023/01/31 09:12:49;;;;;;;27.25;9.52;;;2.70;99.90;;;1.64;100.00;98317.50;5057747;28;21001;-80
2023/01/31 09:15:15;;;;;;;19.60;8.60;;;2.90;99.90;;;1.81;100.00;98318.19;5066640;28;20882;-80
2023/01/31 09:17:42;;;;;;;23.35;9.25;;;2.90;99.90;;;1.82;100.00;98322.44;5055314;28;20464;-80
2023/01/31 09:20:09;;;;;;;24.70;9.20;;;3.00;99.90;;;1.99;100.00;98313.50;5064397;28;20416;-78
2023/01/31 09:22:36;;;;;;;29.52;10.43;;;3.10;99.90;;;1.92;100.00;98308.19;5061108;28;22074;-79
2023/01/31 09:25:02;;;;;;;27.30;9.38;;;3.10;99.90;;;1.88;100.00;98309.50;5059548;28;20976;-80
2023/01/31 09:27:28;;;;;;;26.30;9.13;;;3.00;99.90;;;1.87;100.00;98313.13;5059259;28;20409;-79
2023/01/31 09:29:56;;;;;;;27.23;9.50;;;3.10;99.90;;;1.93;100.00;98309.81;5058368;28;20809;-77
2023/01/31 09:32:22;;;;;;;25.73;10.07;;;3.10;99.90;;;2.07;100.00;98310.03;5063529;28;20912;-78
2023/01/31 09:34:48;;;;;;;21.45;8.85;;;3.20;99.90;;;2.20;100.00;98299.81;5061185;28;20443;-78
2023/01/31 09:37:14;;;;;;;21.80;8.48;;;3.40;99.90;;;2.25;100.00;98295.72;5050337;28;20788;-80
2023/01/31 09:39:40;;;;;;;25.45;8.90;;;3.40;99.90;;;2.45;100.00;98289.97;5062869;28;20421;-82
2023/01/31 09:42:20;;;;;;;23.58;8.50;;;3.60;99.90;;;2.29;100.00;98288.31;5060812;28;20393;-80
2023/01/31 09:44:58;;;;;;;18.58;7.90;;;3.50;99.90;;;2.38;100.00;98302.94;5061086;28;20546;-81
2023/01/31 09:47:29;;;;;;;25.35;8.77;;;3.50;99.90;;;2.41;100.00;98307.78;5069881;28;20532;-82
2023/01/31 09:50:01;;;;;;;18.35;8.50;;;3.60;99.90;;;2.58;100.00;98293.59;5067718;28;20415;-80
2023/01/31 09:52:30;;;;;;;16.75;8.07;;;3.70;99.90;;;2.51;100.00;98295.31;5033750;28;20782;-80
2023/01/31 09:54:57;;;;;;;15.10;7.25;;;3.70;99.90;;;2.47;100.00;98293.22;5047015;28;20414;-82
2023/01/31 09:57:35;;;;;;;20.63;7.88;;;3.60;99.90;;;2.43;100.00;98290.16;5064797;28;20407;-82
2023/01/31 10:00:18;;;;;;;21.15;8.05;;;3.60;99.90;;;2.44;100.00;98294.38;5053455;28;20417;-83
2023/01/31 10:03:50;;;;;;;23.67;7.85;;;3.60;99.90;;;2.41;100.00;98297.34;5053489;28;20750;-81
2023/01/31 10:06:23;;;;;;;16.65;7.85;;;3.50;99.90;;;2.59;100.00;98310.91;4988892;28;20476;-82
2023/01/31 10:08:57;;;;;;;18.17;7.55;;;3.70;99.90;;;2.61;100.00;98319.38;5050566;28;20411;-82
2023/01/31 10:11:34;;;;;;;23.50;7.90;;;3.70;99.90;;;2.64;100.00;98313.78;5053711;28;20796;-83
2023/01/31 10:14:12;;;;;;;20.55;7.43;;;3.80;99.90;;;2.74;100.00;98305.69;5065823;28;20404;-82
2023/01/31 10:16:47;;;;;;;17.80;7.20;;;3.90;99.90;;;2.75;100.00;98306.50;5065781;28;20982;-82
2023/01/31 10:19:20;;;;;;;19.85;6.97;;;3.80;99.90;;;2.89;100.00;98314.38;5055949;28;20399;-82
2023/01/31 10:21:52;;;;;;;24.15;7.47;;;3.90;99.90;;;2.73;100.00;98315.34;5057134;28;20440;-82
2023/01/31 10:24:25;;;;;;;20.00;6.97;;;3.90;99.90;;;2.70;100.00;98317.53;5051173;28;20845;-82
2023/01/31 10:26:59;;;;;;;20.63;6.80;;;3.80;99.90;;;2.79;100.00;98311.19;5051524;28;20401;-82
2023/01/31 10:29:33;;;;;;;20.00;6.70;;;3.90;99.90;;;2.95;100.00;98310.22;5051698;28;20420;-82